Ana Sayfa
METAR-TAF:

METAR-TAF

Havaalanları :

Brunei, Brunei

Enlem: 04-56N, Boylam: 114-56E, yükseklik: 22 m

Güncel hava durumu gözlemi

Rapor saat 07:30 UTC de 32 dakika önce yapıldı.
Rüzgar kuzeydan 9 kt
Sıcaklık 31°C
Nem 66%
Basınç 1008 hPa
Görüş mesafesi: 9000 m
1700 ft yükseklikte az bulutlu
30000 ft yükseklikte parçalı bulutlu

METAR: WBSB 250730Z 35009KT 9000 FEW017 SCT300 31/24 Q1008 NOSIG

Saat: 16:02 (08:02 UTC)

Tahmin

Rapor saat 05:00 UTC de 3 saat ve 2 dakika önce yapıldı.
Ayın 25'si saat 06 UTC'den ayın 26'si saat 12 UTC'ye kadar geçerli Tahmin
Rüzgar kuzey/kuzeydoğudan 10 kt
Görüş mesafesi: 9000 m
1600 ft yükseklikte az bulutlu
1700 ft yükseklikte az bulutlu, Kümülonimbus.
Olasılık 40% :
Geçici
ayın 25'si saat 12 UTC'den ayın 25'si saat 14 UTC'ye kadar
Görüş mesafesi: 7000 m
sağanak yağmurlar

TAF: WBSB 250500Z 2506/2612 02010KT 9000 FEW016 FEW017CB PROB40 TEMPO 2512/2514 7000 SHRA

4.000'den fazla havaalanı için hava durumu gözlemleri ve tahminleri (METAR ve TAF raporları).

Kullanılabilir istasyonlar harita üzerinde sarı ve kırmızı noktalarla gösterilir.

İstasyonun adını görmek için fareyi noktanın üzerinde gezdirin.

Sonrasında hava gözlem ve tahminlerini görmek için tıklayın.

Haritayı değiştirmek için: yaklaştırmak için siyah artı işaretli yeşil düğmeye ve uzaklaştırmak için de eksi işaretli düğmeye hızla tıklayın; bitişik haritalar için yeşil okları kullanın.


METAR-TAF: